sensor_id;sensor_type;location;lat;lon;timestamp;temperature;humidity
1429;DHT22;708;51.442;7.016;2023-07-09T00:01:47;26.60;1.00
1429;DHT22;708;51.442;7.016;2023-07-09T00:04:14;26.50;1.00
1429;DHT22;708;51.442;7.016;2023-07-09T00:06:42;26.50;1.00
1429;DHT22;708;51.442;7.016;2023-07-09T00:09:13;26.50;1.00
1429;DHT22;708;51.442;7.016;2023-07-09T00:11:41;26.40;1.00
1429;DHT22;708;51.442;7.016;2023-07-09T00:14:08;26.40;1.00
1429;DHT22;708;51.442;7.016;2023-07-09T00:16:35;26.40;1.00
1429;DHT22;708;51.442;7.016;2023-07-09T00:19:03;26.30;1.00
1429;DHT22;708;51.442;7.016;2023-07-09T00:21:30;26.30;1.00
1429;DHT22;708;51.442;7.016;2023-07-09T00:24:00;26.30;1.00
1429;DHT22;708;51.442;7.016;2023-07-09T00:26:30;26.30;1.00
1429;DHT22;708;51.442;7.016;2023-07-09T00:28:57;26.20;1.00
1429;DHT22;708;51.442;7.016;2023-07-09T00:31:24;26.20;1.00
1429;DHT22;708;51.442;7.016;2023-07-09T00:33:51;26.20;1.00
1429;DHT22;708;51.442;7.016;2023-07-09T00:36:26;26.10;1.00
1429;DHT22;708;51.442;7.016;2023-07-09T00:38:54;26.10;1.00
1429;DHT22;708;51.442;7.016;2023-07-09T00:41:26;26.10;1.00
1429;DHT22;708;51.442;7.016;2023-07-09T00:43:54;26.00;1.00
1429;DHT22;708;51.442;7.016;2023-07-09T00:49:29;26.00;1.00
1429;DHT22;708;51.442;7.016;2023-07-09T00:51:58;25.90;1.00
1429;DHT22;708;51.442;7.016;2023-07-09T00:54:30;25.90;1.00
1429;DHT22;708;51.442;7.016;2023-07-09T00:57:07;25.90;1.00
1429;DHT22;708;51.442;7.016;2023-07-09T00:59:36;25.80;1.00
1429;DHT22;708;51.442;7.016;2023-07-09T01:02:07;25.80;1.00
1429;DHT22;708;51.442;7.016;2023-07-09T01:04:34;25.80;1.00
1429;DHT22;708;51.442;7.016;2023-07-09T01:07:01;25.80;1.00
1429;DHT22;708;51.442;7.016;2023-07-09T01:09:29;25.70;1.80
1429;DHT22;708;51.442;7.016;2023-07-09T01:11:57;25.60;4.90
1429;DHT22;708;51.442;7.016;2023-07-09T01:14:31;25.60;8.20
1429;DHT22;708;51.442;7.016;2023-07-09T01:17:03;25.60;9.80
1429;DHT22;708;51.442;7.016;2023-07-09T01:19:37;25.60;11.60
1429;DHT22;708;51.442;7.016;2023-07-09T01:22:11;25.50;13.80
1429;DHT22;708;51.442;7.016;2023-07-09T01:24:53;25.50;18.70
1429;DHT22;708;51.442;7.016;2023-07-09T01:27:23;25.50;21.90
1429;DHT22;708;51.442;7.016;2023-07-09T01:29:52;25.40;25.50
1429;DHT22;708;51.442;7.016;2023-07-09T01:32:20;25.40;28.60
1429;DHT22;708;51.442;7.016;2023-07-09T01:34:57;25.40;33.50
1429;DHT22;708;51.442;7.016;2023-07-09T01:42:27;25.20;39.90
1429;DHT22;708;51.442;7.016;2023-07-09T01:44:55;25.20;53.10
1429;DHT22;708;51.442;7.016;2023-07-09T01:47:22;25.20;57.80
1429;DHT22;708;51.442;7.016;2023-07-09T01:49:50;25.10;66.90
1429;DHT22;708;51.442;7.016;2023-07-09T01:52:18;25.10;75.00
1429;DHT22;708;51.442;7.016;2023-07-09T01:54:46;25.00;84.90
1429;DHT22;708;51.442;7.016;2023-07-09T01:59:45;25.00;89.60
1429;DHT22;708;51.442;7.016;2023-07-09T02:02:12;25.00;97.30
1429;DHT22;708;51.442;7.016;2023-07-09T02:04:45;24.90;99.90
1429;DHT22;708;51.442;7.016;2023-07-09T02:07:12;24.90;99.90
1429;DHT22;708;51.442;7.016;2023-07-09T02:09:39;24.80;99.90
1429;DHT22;708;51.442;7.016;2023-07-09T02:12:08;24.80;99.90
1429;DHT22;708;51.442;7.016;2023-07-09T02:14:35;24.80;99.90
1429;DHT22;708;51.442;7.016;2023-07-09T02:17:02;24.80;99.90
1429;DHT22;708;51.442;7.016;2023-07-09T02:19:29;24.80;99.90
1429;DHT22;708;51.442;7.016;2023-07-09T02:21:56;24.80;99.90
1429;DHT22;708;51.442;7.016;2023-07-09T02:24:24;24.80;99.90
1429;DHT22;708;51.442;7.016;2023-07-09T02:26:52;24.80;99.90
1429;DHT22;708;51.442;7.016;2023-07-09T02:29:20;24.70;99.90
1429;DHT22;708;51.442;7.016;2023-07-09T02:31:48;24.70;99.90
1429;DHT22;708;51.442;7.016;2023-07-09T02:34:16;24.70;99.90
1429;DHT22;708;51.442;7.016;2023-07-09T02:36:43;24.70;99.90
1429;DHT22;708;51.442;7.016;2023-07-09T02:39:09;24.70;99.90
1429;DHT22;708;51.442;7.016;2023-07-09T02:41:36;24.60;99.90
1429;DHT22;708;51.442;7.016;2023-07-09T02:44:04;24.60;99.90
1429;DHT22;708;51.442;7.016;2023-07-09T02:46:32;24.50;99.90
1429;DHT22;708;51.442;7.016;2023-07-09T02:48:59;24.60;99.90
1429;DHT22;708;51.442;7.016;2023-07-09T02:51:26;24.50;99.90
1429;DHT22;708;51.442;7.016;2023-07-09T02:53:53;24.50;99.90
1429;DHT22;708;51.442;7.016;2023-07-09T02:56:20;24.50;99.90
1429;DHT22;708;51.442;7.016;2023-07-09T02:58:47;24.50;99.90
1429;DHT22;708;51.442;7.016;2023-07-09T03:01:14;24.40;99.90
1429;DHT22;708;51.442;7.016;2023-07-09T03:03:42;24.40;99.90
1429;DHT22;708;51.442;7.016;2023-07-09T03:06:09;24.40;99.90
1429;DHT22;708;51.442;7.016;2023-07-09T03:08:36;24.40;99.90
1429;DHT22;708;51.442;7.016;2023-07-09T03:11:09;24.30;99.90
1429;DHT22;708;51.442;7.016;2023-07-09T03:13:36;24.30;99.90
1429;DHT22;708;51.442;7.016;2023-07-09T03:16:03;24.30;99.90
1429;DHT22;708;51.442;7.016;2023-07-09T03:18:31;24.20;99.90
1429;DHT22;708;51.442;7.016;2023-07-09T03:20:59;24.20;99.90
1429;DHT22;708;51.442;7.016;2023-07-09T03:23:26;24.20;99.90
1429;DHT22;708;51.442;7.016;2023-07-09T03:25:56;24.20;99.90
1429;DHT22;708;51.442;7.016;2023-07-09T03:28:25;24.20;99.90
1429;DHT22;708;51.442;7.016;2023-07-09T03:30:54;24.20;99.90
1429;DHT22;708;51.442;7.016;2023-07-09T03:33:21;24.10;99.90
1429;DHT22;708;51.442;7.016;2023-07-09T03:35:48;24.20;99.90
1429;DHT22;708;51.442;7.016;2023-07-09T03:38:16;24.10;99.90
1429;DHT22;708;51.442;7.016;2023-07-09T03:40:44;24.10;99.90
1429;DHT22;708;51.442;7.016;2023-07-09T03:43:11;24.10;99.90
1429;DHT22;708;51.442;7.016;2023-07-09T03:45:38;24.10;99.90
1429;DHT22;708;51.442;7.016;2023-07-09T03:48:05;24.10;1.00
1429;DHT22;708;51.442;7.016;2023-07-09T03:50:32;24.10;1.00
1429;DHT22;708;51.442;7.016;2023-07-09T03:52:59;24.10;1.00
1429;DHT22;708;51.442;7.016;2023-07-09T03:55:28;24.20;1.00
1429;DHT22;708;51.442;7.016;2023-07-09T03:57:55;24.20;1.00
1429;DHT22;708;51.442;7.016;2023-07-09T04:00:22;24.20;1.00
1429;DHT22;708;51.442;7.016;2023-07-09T04:02:49;24.20;99.90
1429;DHT22;708;51.442;7.016;2023-07-09T04:05:16;24.30;99.90
1429;DHT22;708;51.442;7.016;2023-07-09T04:07:43;24.30;99.90
1429;DHT22;708;51.442;7.016;2023-07-09T04:10:11;24.40;99.90
1429;DHT22;708;51.442;7.016;2023-07-09T04:12:39;24.50;99.90
1429;DHT22;708;51.442;7.016;2023-07-09T04:15:06;24.50;99.90
1429;DHT22;708;51.442;7.016;2023-07-09T04:17:33;24.60;99.90
1429;DHT22;708;51.442;7.016;2023-07-09T04:20:00;24.70;99.90
1429;DHT22;708;51.442;7.016;2023-07-09T04:22:30;24.80;99.90
1429;DHT22;708;51.442;7.016;2023-07-09T04:24:57;24.80;99.90
1429;DHT22;708;51.442;7.016;2023-07-09T04:27:24;25.00;99.90
1429;DHT22;708;51.442;7.016;2023-07-09T04:29:54;25.10;99.90
1429;DHT22;708;51.442;7.016;2023-07-09T04:32:21;25.20;99.90
1429;DHT22;708;51.442;7.016;2023-07-09T04:34:48;25.30;99.90
1429;DHT22;708;51.442;7.016;2023-07-09T04:37:16;25.40;99.90
1429;DHT22;708;51.442;7.016;2023-07-09T04:39:43;25.60;99.90
1429;DHT22;708;51.442;7.016;2023-07-09T04:42:11;25.70;99.90
1429;DHT22;708;51.442;7.016;2023-07-09T04:44:39;25.90;99.90
1429;DHT22;708;51.442;7.016;2023-07-09T04:47:07;26.00;99.90
1429;DHT22;708;51.442;7.016;2023-07-09T04:49:34;26.10;99.90
1429;DHT22;708;51.442;7.016;2023-07-09T04:52:01;26.30;99.90
1429;DHT22;708;51.442;7.016;2023-07-09T04:54:28;26.50;99.90
1429;DHT22;708;51.442;7.016;2023-07-09T04:56:56;27.00;99.90
1429;DHT22;708;51.442;7.016;2023-07-09T04:59:24;27.70;99.90
1429;DHT22;708;51.442;7.016;2023-07-09T05:01:50;28.40;78.30
1429;DHT22;708;51.442;7.016;2023-07-09T05:04:18;29.10;46.40
1429;DHT22;708;51.442;7.016;2023-07-09T05:06:45;29.90;28.40
1429;DHT22;708;51.442;7.016;2023-07-09T05:09:12;30.30;17.90
1429;DHT22;708;51.442;7.016;2023-07-09T05:11:39;30.80;10.20
1429;DHT22;708;51.442;7.016;2023-07-09T05:14:05;31.30;3.30
1429;DHT22;708;51.442;7.016;2023-07-09T05:16:32;31.70;1.00
1429;DHT22;708;51.442;7.016;2023-07-09T05:18:59;32.20;1.00
1429;DHT22;708;51.442;7.016;2023-07-09T05:21:27;32.60;1.00
1429;DHT22;708;51.442;7.016;2023-07-09T05:23:54;33.00;1.00
1429;DHT22;708;51.442;7.016;2023-07-09T05:26:20;33.40;1.00
1429;DHT22;708;51.442;7.016;2023-07-09T05:28:47;33.80;1.00
1429;DHT22;708;51.442;7.016;2023-07-09T05:31:14;34.30;1.00
1429;DHT22;708;51.442;7.016;2023-07-09T05:33:40;34.70;1.00
1429;DHT22;708;51.442;7.016;2023-07-09T05:36:08;35.20;1.00
1429;DHT22;708;51.442;7.016;2023-07-09T05:38:40;35.60;1.00
1429;DHT22;708;51.442;7.016;2023-07-09T05:41:07;36.10;1.00
1429;DHT22;708;51.442;7.016;2023-07-09T05:43:34;36.40;1.00
1429;DHT22;708;51.442;7.016;2023-07-09T05:46:01;36.80;1.00
1429;DHT22;708;51.442;7.016;2023-07-09T05:48:28;37.30;1.00
1429;DHT22;708;51.442;7.016;2023-07-09T05:50:55;37.70;1.00
1429;DHT22;708;51.442;7.016;2023-07-09T05:53:22;38.10;1.00
1429;DHT22;708;51.442;7.016;2023-07-09T05:55:52;38.30;1.00
1429;DHT22;708;51.442;7.016;2023-07-09T05:58:19;38.40;1.00
1429;DHT22;708;51.442;7.016;2023-07-09T06:00:49;38.50;1.00
1429;DHT22;708;51.442;7.016;2023-07-09T06:03:19;38.70;1.00
1429;DHT22;708;51.442;7.016;2023-07-09T06:05:46;38.90;1.00
1429;DHT22;708;51.442;7.016;2023-07-09T06:08:14;39.00;1.00
1429;DHT22;708;51.442;7.016;2023-07-09T06:10:52;38.90;1.00
1429;DHT22;708;51.442;7.016;2023-07-09T06:13:19;39.00;1.00
1429;DHT22;708;51.442;7.016;2023-07-09T06:15:46;39.50;1.00
1429;DHT22;708;51.442;7.016;2023-07-09T06:18:13;39.60;1.00
1429;DHT22;708;51.442;7.016;2023-07-09T06:20:40;40.00;1.00
1429;DHT22;708;51.442;7.016;2023-07-09T06:23:07;40.40;1.00
1429;DHT22;708;51.442;7.016;2023-07-09T06:25:33;40.60;1.00
1429;DHT22;708;51.442;7.016;2023-07-09T06:28:02;40.80;1.00
1429;DHT22;708;51.442;7.016;2023-07-09T06:30:29;40.80;1.00
1429;DHT22;708;51.442;7.016;2023-07-09T06:32:55;40.90;1.00
1429;DHT22;708;51.442;7.016;2023-07-09T06:35:22;41.30;1.00
1429;DHT22;708;51.442;7.016;2023-07-09T06:37:49;41.50;1.00
1429;DHT22;708;51.442;7.016;2023-07-09T06:40:16;41.60;1.00
1429;DHT22;708;51.442;7.016;2023-07-09T06:42:43;42.00;1.00
1429;DHT22;708;51.442;7.016;2023-07-09T06:45:11;42.30;1.00
1429;DHT22;708;51.442;7.016;2023-07-09T06:47:38;42.60;1.00
1429;DHT22;708;51.442;7.016;2023-07-09T06:50:06;42.90;1.00
1429;DHT22;708;51.442;7.016;2023-07-09T06:52:32;43.20;1.00
1429;DHT22;708;51.442;7.016;2023-07-09T06:54:59;43.40;1.00
1429;DHT22;708;51.442;7.016;2023-07-09T06:57:26;43.60;1.00
1429;DHT22;708;51.442;7.016;2023-07-09T06:59:53;43.90;1.00
1429;DHT22;708;51.442;7.016;2023-07-09T07:02:21;44.10;1.00
1429;DHT22;708;51.442;7.016;2023-07-09T07:04:48;44.50;1.00
1429;DHT22;708;51.442;7.016;2023-07-09T07:07:15;44.70;1.00
1429;DHT22;708;51.442;7.016;2023-07-09T07:09:41;45.10;1.00
1429;DHT22;708;51.442;7.016;2023-07-09T07:12:08;45.20;1.00
1429;DHT22;708;51.442;7.016;2023-07-09T07:14:36;45.70;1.00
1429;DHT22;708;51.442;7.016;2023-07-09T07:17:03;46.00;1.00
1429;DHT22;708;51.442;7.016;2023-07-09T07:19:31;46.30;1.00
1429;DHT22;708;51.442;7.016;2023-07-09T07:21:57;46.40;1.00
1429;DHT22;708;51.442;7.016;2023-07-09T07:24:24;46.70;1.00
1429;DHT22;708;51.442;7.016;2023-07-09T07:26:51;46.60;1.00
1429;DHT22;708;51.442;7.016;2023-07-09T07:29:18;46.80;1.00
1429;DHT22;708;51.442;7.016;2023-07-09T07:31:45;47.30;1.00
1429;DHT22;708;51.442;7.016;2023-07-09T07:34:11;47.30;1.00
1429;DHT22;708;51.442;7.016;2023-07-09T07:36:39;47.60;1.00
1429;DHT22;708;51.442;7.016;2023-07-09T07:39:06;47.60;1.00
1429;DHT22;708;51.442;7.016;2023-07-09T07:41:33;47.90;1.00
1429;DHT22;708;51.442;7.016;2023-07-09T07:44:00;48.10;1.00
1429;DHT22;708;51.442;7.016;2023-07-09T07:46:26;48.30;1.00
1429;DHT22;708;51.442;7.016;2023-07-09T07:48:54;48.50;1.00
1429;DHT22;708;51.442;7.016;2023-07-09T07:51:21;48.40;1.00
1429;DHT22;708;51.442;7.016;2023-07-09T07:53:49;48.50;1.00
1429;DHT22;708;51.442;7.016;2023-07-09T07:56:16;48.60;1.00
1429;DHT22;708;51.442;7.016;2023-07-09T07:58:43;48.60;1.00
1429;DHT22;708;51.442;7.016;2023-07-09T08:01:10;48.80;1.00
1429;DHT22;708;51.442;7.016;2023-07-09T08:03:39;48.70;1.00
1429;DHT22;708;51.442;7.016;2023-07-09T08:06:06;48.70;1.00
1429;DHT22;708;51.442;7.016;2023-07-09T08:08:33;50.00;1.00
1429;DHT22;708;51.442;7.016;2023-07-09T08:11:02;48.80;1.00
1429;DHT22;708;51.442;7.016;2023-07-09T08:13:30;48.80;1.00
1429;DHT22;708;51.442;7.016;2023-07-09T08:15:57;48.80;1.00
1429;DHT22;708;51.442;7.016;2023-07-09T08:18:27;49.00;1.00
1429;DHT22;708;51.442;7.016;2023-07-09T08:20:54;49.00;1.00
1429;DHT22;708;51.442;7.016;2023-07-09T08:23:21;48.30;1.00
1429;DHT22;708;51.442;7.016;2023-07-09T08:25:52;47.70;1.00
1429;DHT22;708;51.442;7.016;2023-07-09T08:28:21;47.50;1.00
1429;DHT22;708;51.442;7.016;2023-07-09T08:30:51;47.50;1.00
1429;DHT22;708;51.442;7.016;2023-07-09T08:33:17;47.60;1.00
1429;DHT22;708;51.442;7.016;2023-07-09T08:35:44;48.00;1.00
1429;DHT22;708;51.442;7.016;2023-07-09T08:38:11;47.70;1.00
1429;DHT22;708;51.442;7.016;2023-07-09T08:40:39;47.80;1.00
1429;DHT22;708;51.442;7.016;2023-07-09T08:43:15;47.70;1.00
1429;DHT22;708;51.442;7.016;2023-07-09T08:46:02;47.60;1.00
1429;DHT22;708;51.442;7.016;2023-07-09T08:48:32;48.50;1.00
1429;DHT22;708;51.442;7.016;2023-07-09T08:51:04;48.80;1.00
1429;DHT22;708;51.442;7.016;2023-07-09T08:53:38;49.00;1.00
1429;DHT22;708;51.442;7.016;2023-07-09T08:56:08;49.00;1.00
1429;DHT22;708;51.442;7.016;2023-07-09T08:58:36;49.20;1.00
1429;DHT22;708;51.442;7.016;2023-07-09T09:01:11;49.10;1.00
1429;DHT22;708;51.442;7.016;2023-07-09T09:03:43;49.00;1.00
1429;DHT22;708;51.442;7.016;2023-07-09T09:06:12;48.40;1.00
1429;DHT22;708;51.442;7.016;2023-07-09T09:08:40;48.50;1.00
1429;DHT22;708;51.442;7.016;2023-07-09T09:11:18;48.30;1.00
1429;DHT22;708;51.442;7.016;2023-07-09T09:13:48;48.70;1.00
1429;DHT22;708;51.442;7.016;2023-07-09T09:16:25;48.60;1.00
1429;DHT22;708;51.442;7.016;2023-07-09T09:18:55;48.20;1.00
1429;DHT22;708;51.442;7.016;2023-07-09T09:21:26;48.50;1.00
1429;DHT22;708;51.442;7.016;2023-07-09T09:23:57;48.80;1.00
1429;DHT22;708;51.442;7.016;2023-07-09T09:26:28;48.50;1.00
1429;DHT22;708;51.442;7.016;2023-07-09T09:28:57;48.70;1.00
1429;DHT22;708;51.442;7.016;2023-07-09T09:33:53;49.70;1.00
1429;DHT22;708;51.442;7.016;2023-07-09T09:36:22;50.10;1.00
1429;DHT22;708;51.442;7.016;2023-07-09T09:38:50;50.30;1.00
1429;DHT22;708;51.442;7.016;2023-07-09T09:41:19;50.30;1.00
1429;DHT22;708;51.442;7.016;2023-07-09T09:43:47;50.60;1.00
1429;DHT22;708;51.442;7.016;2023-07-09T09:46:17;50.60;1.00
1429;DHT22;708;51.442;7.016;2023-07-09T09:48:47;50.50;1.00
1429;DHT22;708;51.442;7.016;2023-07-09T09:51:15;50.00;1.00
1429;DHT22;708;51.442;7.016;2023-07-09T09:53:46;50.20;1.00
1429;DHT22;708;51.442;7.016;2023-07-09T09:56:18;49.80;1.00
1429;DHT22;708;51.442;7.016;2023-07-09T09:58:46;49.70;1.00
1429;DHT22;708;51.442;7.016;2023-07-09T10:01:15;49.10;1.00
1429;DHT22;708;51.442;7.016;2023-07-09T10:03:43;48.60;1.00
1429;DHT22;708;51.442;7.016;2023-07-09T10:06:18;48.50;1.00
1429;DHT22;708;51.442;7.016;2023-07-09T10:08:54;48.40;1.00
1429;DHT22;708;51.442;7.016;2023-07-09T10:11:30;48.60;1.00
1429;DHT22;708;51.442;7.016;2023-07-09T10:14:04;48.90;1.00
1429;DHT22;708;51.442;7.016;2023-07-09T10:16:35;49.20;1.00
1429;DHT22;708;51.442;7.016;2023-07-09T10:19:14;49.30;1.00
1429;DHT22;708;51.442;7.016;2023-07-09T10:21:46;49.30;1.00
1429;DHT22;708;51.442;7.016;2023-07-09T10:24:27;49.20;1.00
1429;DHT22;708;51.442;7.016;2023-07-09T10:27:03;49.20;1.00
1429;DHT22;708;51.442;7.016;2023-07-09T10:29:44;48.90;1.00
1429;DHT22;708;51.442;7.016;2023-07-09T10:32:22;48.00;1.00
1429;DHT22;708;51.442;7.016;2023-07-09T10:34:55;47.90;1.00
1429;DHT22;708;51.442;7.016;2023-07-09T10:37:43;47.90;1.00
1429;DHT22;708;51.442;7.016;2023-07-09T10:40:18;47.30;1.00
1429;DHT22;708;51.442;7.016;2023-07-09T10:42:52;47.10;1.00
1429;DHT22;708;51.442;7.016;2023-07-09T10:45:28;46.80;1.00
1429;DHT22;708;51.442;7.016;2023-07-09T10:47:59;46.30;1.00
1429;DHT22;708;51.442;7.016;2023-07-09T10:50:30;45.40;1.00
1429;DHT22;708;51.442;7.016;2023-07-09T10:53:04;44.40;1.00
1429;DHT22;708;51.442;7.016;2023-07-09T10:55:37;43.40;1.00
1429;DHT22;708;51.442;7.016;2023-07-09T10:58:15;42.60;1.00
1429;DHT22;708;51.442;7.016;2023-07-09T11:00:45;41.90;1.00
1429;DHT22;708;51.442;7.016;2023-07-09T11:03:18;41.40;1.00
1429;DHT22;708;51.442;7.016;2023-07-09T11:05:46;41.10;1.00
1429;DHT22;708;51.442;7.016;2023-07-09T11:08:17;40.80;1.00
1429;DHT22;708;51.442;7.016;2023-07-09T11:10:51;40.40;1.00
1429;DHT22;708;51.442;7.016;2023-07-09T11:13:30;40.00;1.00
1429;DHT22;708;51.442;7.016;2023-07-09T11:16:03;39.70;1.00
1429;DHT22;708;51.442;7.016;2023-07-09T11:18:32;39.40;1.00
1429;DHT22;708;51.442;7.016;2023-07-09T11:21:01;39.20;1.00
1429;DHT22;708;51.442;7.016;2023-07-09T11:23:43;39.00;1.00
1429;DHT22;708;51.442;7.016;2023-07-09T11:26:13;38.80;1.00
1429;DHT22;708;51.442;7.016;2023-07-09T11:28:47;38.70;1.00
1429;DHT22;708;51.442;7.016;2023-07-09T11:31:22;38.60;1.00
1429;DHT22;708;51.442;7.016;2023-07-09T11:33:59;38.50;1.00
1429;DHT22;708;51.442;7.016;2023-07-09T11:36:30;38.40;1.00
1429;DHT22;708;51.442;7.016;2023-07-09T11:39:02;38.30;1.00
1429;DHT22;708;51.442;7.016;2023-07-09T11:41:38;38.30;1.00
1429;DHT22;708;51.442;7.016;2023-07-09T11:44:15;38.30;1.00
1429;DHT22;708;51.442;7.016;2023-07-09T11:46:54;38.20;1.00
1429;DHT22;708;51.442;7.016;2023-07-09T11:49:26;38.10;1.00
1429;DHT22;708;51.442;7.016;2023-07-09T11:51:59;37.80;1.00
1429;DHT22;708;51.442;7.016;2023-07-09T11:54:27;37.80;1.00
1429;DHT22;708;51.442;7.016;2023-07-09T11:56:55;37.80;1.00
1429;DHT22;708;51.442;7.016;2023-07-09T11:59:22;37.70;1.00
1429;DHT22;708;51.442;7.016;2023-07-09T12:01:49;37.70;1.00
1429;DHT22;708;51.442;7.016;2023-07-09T12:04:20;37.70;1.00
1429;DHT22;708;51.442;7.016;2023-07-09T12:06:48;37.80;1.00
1429;DHT22;708;51.442;7.016;2023-07-09T12:09:18;37.80;1.00
1429;DHT22;708;51.442;7.016;2023-07-09T12:11:48;37.90;1.00
1429;DHT22;708;51.442;7.016;2023-07-09T12:14:18;38.10;1.00
1429;DHT22;708;51.442;7.016;2023-07-09T12:16:46;38.20;1.00
1429;DHT22;708;51.442;7.016;2023-07-09T12:19:15;38.30;1.00
1429;DHT22;708;51.442;7.016;2023-07-09T12:21:45;38.40;1.00
1429;DHT22;708;51.442;7.016;2023-07-09T12:24:20;38.50;1.00
1429;DHT22;708;51.442;7.016;2023-07-09T12:26:53;38.70;1.00
1429;DHT22;708;51.442;7.016;2023-07-09T12:29:23;38.90;1.00
1429;DHT22;708;51.442;7.016;2023-07-09T12:31:51;39.00;1.00
1429;DHT22;708;51.442;7.016;2023-07-09T12:34:18;39.00;1.00
1429;DHT22;708;51.442;7.016;2023-07-09T12:36:48;39.10;1.00
1429;DHT22;708;51.442;7.016;2023-07-09T12:39:18;39.20;1.00
1429;DHT22;708;51.442;7.016;2023-07-09T12:41:45;39.30;1.00
1429;DHT22;708;51.442;7.016;2023-07-09T12:44:18;39.30;1.00
1429;DHT22;708;51.442;7.016;2023-07-09T12:46:47;39.40;1.00
1429;DHT22;708;51.442;7.016;2023-07-09T12:49:21;39.50;1.00
1429;DHT22;708;51.442;7.016;2023-07-09T12:51:48;39.70;1.00
1429;DHT22;708;51.442;7.016;2023-07-09T12:54:18;39.80;1.00
1429;DHT22;708;51.442;7.016;2023-07-09T12:56:46;40.10;1.00
1429;DHT22;708;51.442;7.016;2023-07-09T12:59:19;40.10;1.00
1429;DHT22;708;51.442;7.016;2023-07-09T13:01:49;40.20;1.00
1429;DHT22;708;51.442;7.016;2023-07-09T13:04:16;40.20;1.00
1429;DHT22;708;51.442;7.016;2023-07-09T13:06:44;40.10;1.00
1429;DHT22;708;51.442;7.016;2023-07-09T13:09:16;40.10;1.00
1429;DHT22;708;51.442;7.016;2023-07-09T13:11:45;40.20;1.00
1429;DHT22;708;51.442;7.016;2023-07-09T13:14:20;40.30;1.00
1429;DHT22;708;51.442;7.016;2023-07-09T13:16:47;40.30;1.00
1429;DHT22;708;51.442;7.016;2023-07-09T13:19:16;40.20;1.00
1429;DHT22;708;51.442;7.016;2023-07-09T13:21:46;40.30;1.00
1429;DHT22;708;51.442;7.016;2023-07-09T13:24:23;40.20;1.00
1429;DHT22;708;51.442;7.016;2023-07-09T13:26:53;40.00;1.00
1429;DHT22;708;51.442;7.016;2023-07-09T13:29:25;39.80;1.00
1429;DHT22;708;51.442;7.016;2023-07-09T13:31:52;39.80;1.00
1429;DHT22;708;51.442;7.016;2023-07-09T13:34:21;39.80;1.00
1429;DHT22;708;51.442;7.016;2023-07-09T13:36:49;39.60;1.00
1429;DHT22;708;51.442;7.016;2023-07-09T13:39:17;39.50;1.00
1429;DHT22;708;51.442;7.016;2023-07-09T13:41:45;39.50;1.00
1429;DHT22;708;51.442;7.016;2023-07-09T13:44:15;39.50;1.00
1429;DHT22;708;51.442;7.016;2023-07-09T13:46:44;39.30;1.00
1429;DHT22;708;51.442;7.016;2023-07-09T13:49:12;39.10;1.00
1429;DHT22;708;51.442;7.016;2023-07-09T13:51:40;38.90;1.00
1429;DHT22;708;51.442;7.016;2023-07-09T13:54:14;38.60;1.00
1429;DHT22;708;51.442;7.016;2023-07-09T13:56:42;38.20;1.00
1429;DHT22;708;51.442;7.016;2023-07-09T13:59:13;37.80;1.00
1429;DHT22;708;51.442;7.016;2023-07-09T14:01:41;37.50;1.00
1429;DHT22;708;51.442;7.016;2023-07-09T14:04:11;37.20;1.00
1429;DHT22;708;51.442;7.016;2023-07-09T14:06:38;36.90;1.00
1429;DHT22;708;51.442;7.016;2023-07-09T14:09:05;36.60;1.00
1429;DHT22;708;51.442;7.016;2023-07-09T14:11:41;36.30;1.00
1429;DHT22;708;51.442;7.016;2023-07-09T14:14:16;35.90;1.00
1429;DHT22;708;51.442;7.016;2023-07-09T14:16:43;35.40;1.00
1429;DHT22;708;51.442;7.016;2023-07-09T14:19:15;34.90;1.00
1429;DHT22;708;51.442;7.016;2023-07-09T14:21:42;34.30;1.00
1429;DHT22;708;51.442;7.016;2023-07-09T14:24:18;33.50;1.00
1429;DHT22;708;51.442;7.016;2023-07-09T14:26:46;29.70;50.40
1429;DHT22;708;51.442;7.016;2023-07-09T14:29:13;29.10;99.90
1429;DHT22;708;51.442;7.016;2023-07-09T14:31:41;27.60;12.70
1429;DHT22;708;51.442;7.016;2023-07-09T14:34:20;26.70;99.90
1429;DHT22;708;51.442;7.016;2023-07-09T14:36:47;26.00;99.90
1429;DHT22;708;51.442;7.016;2023-07-09T14:39:14;25.50;99.90
1429;DHT22;708;51.442;7.016;2023-07-09T14:41:41;25.00;99.90
1429;DHT22;708;51.442;7.016;2023-07-09T14:44:19;24.70;1.00
1429;DHT22;708;51.442;7.016;2023-07-09T14:46:48;24.40;99.90
1429;DHT22;708;51.442;7.016;2023-07-09T14:49:16;24.20;1.00
1429;DHT22;708;51.442;7.016;2023-07-09T14:51:43;24.00;1.00
1429;DHT22;708;51.442;7.016;2023-07-09T14:54:18;23.80;21.80
1429;DHT22;708;51.442;7.016;2023-07-09T14:56:46;23.70;36.70
1429;DHT22;708;51.442;7.016;2023-07-09T14:59:12;23.60;40.40
1429;DHT22;708;51.442;7.016;2023-07-09T15:01:39;23.70;63.80
1429;DHT22;708;51.442;7.016;2023-07-09T15:04:25;23.70;51.20
1429;DHT22;708;51.442;7.016;2023-07-09T15:06:54;23.80;99.90
1429;DHT22;708;51.442;7.016;2023-07-09T15:09:23;24.00;99.90
1429;DHT22;708;51.442;7.016;2023-07-09T15:11:52;23.90;99.90
1429;DHT22;708;51.442;7.016;2023-07-09T15:14:19;23.90;99.90
1429;DHT22;708;51.442;7.016;2023-07-09T15:16:47;24.00;99.90
1429;DHT22;708;51.442;7.016;2023-07-09T15:19:16;24.00;99.90
1429;DHT22;708;51.442;7.016;2023-07-09T15:21:44;24.00;99.90
1429;DHT22;708;51.442;7.016;2023-07-09T15:24:11;24.00;99.90
1429;DHT22;708;51.442;7.016;2023-07-09T15:26:42;23.90;99.90
1429;DHT22;708;51.442;7.016;2023-07-09T15:29:14;23.80;99.90
1429;DHT22;708;51.442;7.016;2023-07-09T15:31:40;23.70;99.90
1429;DHT22;708;51.442;7.016;2023-07-09T15:34:07;23.70;99.90
1429;DHT22;708;51.442;7.016;2023-07-09T15:36:34;23.60;99.90
1429;DHT22;708;51.442;7.016;2023-07-09T15:39:02;23.50;99.90
1429;DHT22;708;51.442;7.016;2023-07-09T15:41:29;23.40;99.90
1429;DHT22;708;51.442;7.016;2023-07-09T15:43:56;23.40;99.90
1429;DHT22;708;51.442;7.016;2023-07-09T15:46:23;23.40;99.90
1429;DHT22;708;51.442;7.016;2023-07-09T15:48:50;23.40;99.90
1429;DHT22;708;51.442;7.016;2023-07-09T15:51:18;23.50;99.90
1429;DHT22;708;51.442;7.016;2023-07-09T15:53:45;23.50;99.90
1429;DHT22;708;51.442;7.016;2023-07-09T15:56:18;23.50;99.90
1429;DHT22;708;51.442;7.016;2023-07-09T15:58:47;23.40;99.90
1429;DHT22;708;51.442;7.016;2023-07-09T16:01:14;23.40;99.90
1429;DHT22;708;51.442;7.016;2023-07-09T16:03:47;23.50;99.90
1429;DHT22;708;51.442;7.016;2023-07-09T16:06:14;23.60;99.90
1429;DHT22;708;51.442;7.016;2023-07-09T16:08:43;23.70;99.90
1429;DHT22;708;51.442;7.016;2023-07-09T16:11:15;23.80;99.90
1429;DHT22;708;51.442;7.016;2023-07-09T16:13:43;23.90;99.90
1429;DHT22;708;51.442;7.016;2023-07-09T16:16:13;23.90;99.90
1429;DHT22;708;51.442;7.016;2023-07-09T16:18:40;23.90;99.90
1429;DHT22;708;51.442;7.016;2023-07-09T16:21:21;24.00;99.90
1429;DHT22;708;51.442;7.016;2023-07-09T16:23:48;24.00;99.90
1429;DHT22;708;51.442;7.016;2023-07-09T16:26:16;24.10;99.90
1429;DHT22;708;51.442;7.016;2023-07-09T16:28:43;24.20;99.90
1429;DHT22;708;51.442;7.016;2023-07-09T16:31:10;24.30;99.90
1429;DHT22;708;51.442;7.016;2023-07-09T16:33:37;24.40;99.90
1429;DHT22;708;51.442;7.016;2023-07-09T16:36:04;24.60;99.90
1429;DHT22;708;51.442;7.016;2023-07-09T16:38:31;24.80;99.90
1429;DHT22;708;51.442;7.016;2023-07-09T16:41:00;24.90;99.90
1429;DHT22;708;51.442;7.016;2023-07-09T16:43:28;25.30;99.90
1429;DHT22;708;51.442;7.016;2023-07-09T16:45:55;25.50;99.90
1429;DHT22;708;51.442;7.016;2023-07-09T16:48:24;25.80;99.90
1429;DHT22;708;51.442;7.016;2023-07-09T16:50:54;26.00;98.80
1429;DHT22;708;51.442;7.016;2023-07-09T16:53:22;26.10;53.00
1429;DHT22;708;51.442;7.016;2023-07-09T16:55:50;26.40;24.00